createdAt,value
2022-11-17T00:04:25.375Z,17.42
2022-11-17T00:07:11.800Z,16.98
2022-11-17T00:09:57.588Z,16.70
2022-11-17T00:13:02.474Z,13.68
2022-11-17T00:15:48.709Z,13.02
2022-11-17T00:18:53.073Z,11.63
2022-11-17T00:21:44.536Z,9.60
2022-11-17T00:24:31.270Z,8.95
2022-11-17T00:27:19.072Z,8.43
2022-11-17T00:30:06.165Z,7.65
2022-11-17T00:33:11.747Z,6.90
2022-11-17T00:35:57.598Z,7.05
2022-11-17T00:38:43.193Z,6.88
2022-11-17T00:41:29.157Z,6.80
2022-11-17T00:44:15.294Z,6.60
2022-11-17T00:47:01.417Z,6.13
2022-11-17T00:49:47.175Z,6.53
2022-11-17T00:52:33.239Z,5.78
2022-11-17T00:55:19.324Z,6.63
2022-11-17T00:58:05.264Z,6.78
2022-11-17T01:00:51.143Z,6.45
2022-11-17T01:03:37.415Z,8.07
2022-11-17T01:06:23.576Z,8.02
2022-11-17T01:09:27.426Z,9.23
2022-11-17T01:12:13.112Z,10.90
2022-11-17T01:14:58.721Z,8.63
2022-11-17T01:17:44.624Z,8.07
2022-11-17T01:20:30.387Z,8.00
2022-11-17T01:23:16.490Z,8.75
2022-11-17T01:26:19.727Z,9.73
2022-11-17T01:29:06.786Z,9.30
2022-11-17T01:31:52.677Z,9.43
2022-11-17T01:34:38.899Z,10.32
2022-11-17T01:37:24.857Z,10.13
2022-11-17T01:40:13.159Z,9.73
2022-11-17T01:42:59.599Z,9.38
2022-11-17T01:45:45.901Z,8.68
2022-11-17T01:48:31.791Z,8.85
2022-11-17T01:51:17.975Z,9.20
2022-11-17T01:54:03.908Z,8.73
2022-11-17T01:56:52.162Z,8.98
2022-11-17T01:59:37.905Z,8.98
2022-11-17T02:02:23.866Z,8.80
2022-11-17T02:05:17.100Z,11.27
2022-11-17T02:08:05.318Z,11.88
2022-11-17T02:10:52.136Z,11.82
2022-11-17T02:13:38.777Z,12.93
2022-11-17T02:16:24.848Z,12.55
2022-11-17T02:19:12.151Z,13.13
2022-11-17T02:22:20.222Z,14.45
2022-11-17T02:25:43.262Z,13.35
2022-11-17T02:28:35.049Z,13.30
2022-11-17T02:31:52.262Z,12.57
2022-11-17T02:34:54.279Z,10.60
2022-11-17T02:37:59.206Z,10.38
2022-11-17T02:40:50.201Z,9.20
2022-11-17T02:44:04.513Z,8.82
2022-11-17T02:47:02.551Z,8.23
2022-11-17T02:50:02.317Z,9.07
2022-11-17T02:52:48.435Z,7.50
2022-11-17T02:55:37.963Z,7.88
2022-11-17T02:58:23.900Z,7.15
2022-11-17T03:01:33.455Z,8.25
2022-11-17T03:04:22.151Z,8.13
2022-11-17T03:07:14.833Z,8.13
2022-11-17T03:10:22.466Z,8.25
2022-11-17T03:13:46.689Z,9.20
2022-11-17T03:16:36.453Z,9.60
2022-11-17T03:19:31.976Z,11.27
2022-11-17T03:22:24.372Z,10.05
2022-11-17T03:25:15.263Z,11.10
2022-11-17T03:28:05.859Z,10.30
2022-11-17T03:30:52.947Z,9.77
2022-11-17T03:33:40.815Z,10.23
2022-11-17T03:36:31.193Z,9.55
2022-11-17T03:39:23.707Z,9.63
2022-11-17T03:42:30.954Z,9.90
2022-11-17T03:45:23.077Z,8.13
2022-11-17T03:48:14.524Z,8.95
2022-11-17T03:51:22.126Z,10.48
2022-11-17T03:54:09.634Z,9.43
2022-11-17T03:57:01.531Z,8.90
2022-11-17T04:00:06.948Z,5.90
2022-11-17T04:02:59.575Z,5.43
2022-11-17T04:05:45.853Z,5.65
2022-11-17T04:08:32.020Z,4.57
2022-11-17T04:11:36.276Z,2.60
2022-11-17T04:14:40.932Z,1.60
2022-11-17T04:17:27.218Z,1.60
2022-11-17T04:20:13.201Z,1.48
2022-11-17T04:23:08.387Z,1.23
2022-11-17T04:26:14.618Z,0.68
2022-11-17T04:29:00.422Z,0.80
2022-11-17T04:31:46.274Z,0.68
2022-11-17T04:34:31.949Z,0.60
2022-11-17T04:37:17.698Z,0.57
2022-11-17T04:40:03.956Z,0.50
2022-11-17T04:42:49.619Z,0.80
2022-11-17T04:45:35.361Z,0.30
2022-11-17T04:48:21.021Z,0.50
2022-11-17T04:51:06.749Z,0.45
2022-11-17T04:53:52.730Z,1.10
2022-11-17T04:56:38.998Z,0.98
2022-11-17T04:59:25.393Z,40.08
2022-11-17T05:02:11.201Z,20.98
2022-11-17T05:04:56.974Z,7.03
2022-11-17T05:07:43.167Z,3.05
2022-11-17T05:10:47.513Z,1.70
2022-11-17T05:13:33.852Z,1.80
2022-11-17T05:16:39.252Z,1.10
2022-11-17T05:19:27.072Z,1.55
2022-11-17T05:22:36.621Z,1.30
2022-11-17T05:25:22.625Z,1.48
2022-11-17T05:28:08.256Z,1.10
2022-11-17T05:30:53.980Z,1.95
2022-11-17T05:33:40.757Z,2.40
2022-11-17T05:36:27.746Z,1.58
2022-11-17T05:39:16.054Z,1.40
2022-11-17T05:42:02.023Z,1.45
2022-11-17T05:44:50.342Z,4.43
2022-11-17T05:47:36.312Z,1.77
2022-11-17T05:50:22.017Z,2.05
2022-11-17T05:53:07.802Z,2.42
2022-11-17T05:56:08.181Z,4.20
2022-11-17T05:59:08.194Z,8.98
2022-11-17T06:02:00.692Z,5.68
2022-11-17T06:04:49.383Z,5.87
2022-11-17T06:07:36.833Z,4.68
2022-11-17T06:10:23.308Z,6.72
2022-11-17T06:13:09.107Z,4.75
2022-11-17T06:16:02.699Z,5.35
2022-11-17T06:18:54.303Z,3.92
2022-11-17T06:22:09.895Z,5.88
2022-11-17T06:24:46.858Z,10.30
2022-11-17T06:27:33.320Z,10.25
2022-11-17T06:30:19.371Z,10.05
2022-11-17T06:33:07.732Z,8.20
2022-11-17T06:35:53.469Z,10.32
2022-11-17T06:38:40.776Z,11.30
2022-11-17T06:41:26.908Z,11.25
2022-11-17T06:44:12.746Z,8.80
2022-11-17T06:46:58.541Z,7.47
2022-11-17T06:49:44.649Z,6.80
2022-11-17T06:52:30.463Z,7.30
2022-11-17T06:55:16.289Z,5.28
2022-11-17T06:58:06.982Z,4.20
2022-11-17T07:00:53.202Z,4.15
2022-11-17T07:03:40.932Z,3.55
2022-11-17T07:06:27.049Z,3.33
2022-11-17T07:09:12.641Z,3.08
2022-11-17T07:11:58.429Z,2.75
2022-11-17T07:14:44.936Z,2.83
2022-11-17T07:17:32.124Z,3.40
2022-11-17T07:20:18.577Z,3.78
2022-11-17T07:23:04.500Z,3.33
2022-11-17T07:25:52.942Z,2.50
2022-11-17T07:28:39.023Z,2.65
2022-11-17T07:31:25.027Z,2.22
2022-11-17T07:34:11.047Z,2.60
2022-11-17T07:36:56.785Z,1.92
2022-11-17T07:39:42.477Z,3.67
2022-11-17T07:42:28.112Z,4.50
2022-11-17T07:45:14.027Z,3.70
2022-11-17T07:48:01.828Z,2.33
2022-11-17T07:50:47.512Z,3.10
2022-11-17T07:53:35.208Z,4.30
2022-11-17T07:56:20.898Z,3.78
2022-11-17T07:59:06.888Z,3.85
2022-11-17T08:01:53.006Z,5.00
2022-11-17T08:04:39.185Z,3.90
2022-11-17T08:07:24.984Z,3.47
2022-11-17T08:10:11.375Z,4.55
2022-11-17T08:12:58.381Z,3.20
2022-11-17T08:15:44.375Z,6.95
2022-11-17T08:18:30.863Z,3.58
2022-11-17T08:21:16.971Z,4.47
2022-11-17T08:24:06.263Z,3.88
2022-11-17T08:26:55.454Z,4.50
2022-11-17T08:29:41.118Z,7.28
2022-11-17T08:32:26.809Z,5.07
2022-11-17T08:35:12.745Z,4.68
2022-11-17T08:37:58.735Z,4.05
2022-11-17T08:40:46.054Z,3.05
2022-11-17T08:43:32.167Z,3.88
2022-11-17T08:46:18.112Z,4.90
2022-11-17T08:49:04.248Z,5.20
2022-11-17T08:51:49.990Z,7.05
2022-11-17T08:54:35.754Z,6.45
2022-11-17T08:57:22.447Z,8.10
2022-11-17T09:00:08.857Z,12.85
2022-11-17T09:02:54.808Z,20.95
2022-11-17T09:05:45.215Z,9.40
2022-11-17T09:08:45.439Z,13.88
2022-11-17T09:11:37.735Z,8.95
2022-11-17T09:14:23.426Z,12.15
2022-11-17T09:17:09.411Z,11.45
2022-11-17T09:19:55.092Z,12.27
2022-11-17T09:22:40.738Z,18.50
2022-11-17T09:25:26.626Z,15.07
2022-11-17T09:28:12.213Z,11.65
2022-11-17T09:31:00.390Z,9.10
2022-11-17T09:33:47.494Z,9.18
2022-11-17T09:36:33.928Z,10.48
2022-11-17T09:39:19.771Z,18.13
2022-11-17T09:42:05.844Z,17.85
2022-11-17T09:45:04.716Z,16.13
2022-11-17T09:48:12.628Z,16.15
2022-11-17T09:51:08.657Z,9.65
2022-11-17T09:53:58.006Z,11.68
2022-11-17T09:56:46.178Z,11.77
2022-11-17T09:59:32.535Z,10.65
2022-11-17T10:02:18.117Z,9.68
2022-11-17T10:05:03.896Z,7.60
2022-11-17T10:07:51.805Z,8.35
2022-11-17T10:10:44.840Z,5.32
2022-11-17T10:13:33.345Z,4.25
2022-11-17T10:16:19.735Z,4.25
2022-11-17T10:19:22.475Z,4.70
2022-11-17T10:22:09.257Z,4.80
2022-11-17T10:24:55.579Z,5.15
2022-11-17T10:27:44.126Z,4.40
2022-11-17T10:30:30.309Z,5.88
2022-11-17T10:33:18.793Z,5.57
2022-11-17T10:36:08.130Z,5.70
2022-11-17T10:38:55.601Z,8.05
2022-11-17T10:41:43.146Z,7.72
2022-11-17T10:44:30.680Z,7.70
2022-11-17T10:47:37.670Z,8.25
2022-11-17T10:50:28.377Z,7.72
2022-11-17T10:53:46.313Z,8.30
2022-11-17T10:56:44.722Z,10.57
2022-11-17T10:59:32.696Z,13.70
2022-11-17T11:02:31.034Z,10.18
2022-11-17T11:05:18.748Z,8.55
2022-11-17T11:08:17.138Z,7.03
2022-11-17T11:11:09.165Z,6.78
2022-11-17T11:14:45.263Z,8.70
2022-11-17T11:17:34.387Z,6.93
2022-11-17T11:20:27.055Z,5.78
2022-11-17T11:23:38.046Z,6.70
2022-11-17T11:26:45.903Z,5.93
2022-11-17T11:29:53.102Z,6.93
2022-11-17T11:32:54.909Z,6.38
2022-11-17T11:36:01.600Z,7.75
2022-11-17T11:38:58.960Z,9.95
2022-11-17T11:42:08.241Z,7.90
2022-11-17T11:45:10.484Z,7.55
2022-11-17T11:47:56.447Z,7.57
2022-11-17T11:50:51.278Z,6.90
2022-11-17T11:53:49.247Z,6.30
2022-11-17T11:56:46.217Z,6.18
2022-11-17T11:59:49.384Z,6.38
2022-11-17T12:02:56.103Z,10.10
2022-11-17T12:05:59.806Z,13.63
2022-11-17T12:08:51.791Z,8.93
2022-11-17T12:12:00.407Z,11.85
2022-11-17T12:15:29.068Z,13.07
2022-11-17T12:18:18.088Z,14.48
2022-11-17T12:21:11.964Z,17.85
2022-11-17T12:24:03.917Z,14.82
2022-11-17T12:26:49.770Z,12.40
2022-11-17T12:29:47.191Z,11.07
2022-11-17T12:32:45.099Z,9.70
2022-11-17T12:35:35.822Z,7.70
2022-11-17T12:38:21.701Z,7.07
2022-11-17T12:41:07.650Z,5.20
2022-11-17T12:43:53.553Z,5.35
2022-11-17T12:46:39.611Z,6.05
2022-11-17T12:49:35.540Z,6.03
2022-11-17T12:52:33.230Z,6.63
2022-11-17T12:55:24.965Z,5.40
2022-11-17T12:58:37.934Z,5.20
2022-11-17T13:01:44.982Z,7.80
2022-11-17T13:04:49.609Z,7.47
2022-11-17T13:07:36.060Z,5.07
2022-11-17T13:10:30.206Z,8.63
2022-11-17T13:13:23.711Z,5.75
2022-11-17T13:16:17.368Z,5.07
2022-11-17T13:19:03.997Z,4.00
2022-11-17T13:21:49.773Z,4.47
2022-11-17T13:24:37.513Z,6.32
2022-11-17T13:27:28.808Z,4.45
2022-11-17T13:30:29.293Z,6.80
2022-11-17T13:33:20.413Z,5.47
2022-11-17T13:36:24.983Z,6.15
2022-11-17T13:39:17.184Z,5.90
2022-11-17T13:42:04.244Z,6.68
2022-11-17T13:44:50.163Z,7.68
2022-11-17T13:47:36.144Z,8.30
2022-11-17T13:50:21.942Z,8.32
2022-11-17T13:53:10.729Z,7.90
2022-11-17T13:55:56.494Z,8.85
2022-11-17T13:58:42.444Z,27.75
2022-11-17T14:01:31.141Z,23.30
2022-11-17T14:04:23.547Z,16.42
2022-11-17T14:07:10.884Z,14.02
2022-11-17T14:10:21.273Z,15.45
2022-11-17T14:13:15.499Z,11.48
2022-11-17T14:16:01.439Z,18.00
2022-11-17T14:18:57.983Z,18.92
2022-11-17T14:22:24.959Z,14.02
2022-11-17T14:25:18.426Z,11.98
2022-11-17T14:28:04.255Z,7.60
2022-11-17T14:30:51.409Z,9.93
2022-11-17T14:33:37.254Z,10.40
2022-11-17T14:36:23.346Z,10.15
2022-11-17T14:39:18.575Z,26.45
2022-11-17T14:42:05.782Z,82.75
2022-11-17T14:44:51.435Z,45.45
2022-11-17T14:47:37.295Z,29.13
2022-11-17T14:50:23.411Z,19.02
2022-11-17T14:53:09.450Z,15.07
2022-11-17T14:55:55.584Z,16.90
2022-11-17T14:58:41.772Z,22.00
2022-11-17T15:01:31.208Z,20.50
2022-11-17T15:07:24.439Z,27.45
2022-11-17T15:10:10.950Z,32.08
2022-11-17T15:12:56.793Z,18.55
2022-11-17T15:15:42.712Z,16.40
2022-11-17T15:18:29.077Z,20.20
2022-11-17T15:21:16.800Z,19.55
2022-11-17T15:24:04.178Z,22.98
2022-11-17T15:26:50.586Z,23.33
2022-11-17T15:29:36.877Z,21.13
2022-11-17T15:32:22.717Z,20.77
2022-11-17T15:35:08.912Z,21.45
2022-11-17T15:37:54.826Z,22.98
2022-11-17T15:40:41.006Z,23.20
2022-11-17T15:43:31.505Z,22.20
2022-11-17T15:46:18.871Z,23.48
2022-11-17T15:49:04.607Z,27.02
2022-11-17T15:51:50.743Z,27.08
2022-11-17T15:54:36.840Z,26.33
2022-11-17T15:57:23.109Z,28.95
2022-11-17T16:00:10.063Z,24.58
2022-11-17T16:02:58.780Z,24.10
2022-11-17T16:05:45.296Z,23.02
2022-11-17T16:08:31.894Z,21.23
2022-11-17T16:11:18.066Z,20.33
2022-11-17T16:14:06.115Z,16.13
2022-11-17T16:16:52.098Z,14.43
2022-11-17T16:19:38.209Z,14.60
2022-11-17T16:22:24.186Z,17.48
2022-11-17T16:25:10.548Z,17.75
2022-11-17T16:27:56.646Z,19.98
2022-11-17T16:30:42.973Z,21.23
2022-11-17T16:33:28.944Z,21.50
2022-11-17T16:36:15.564Z,19.02
2022-11-17T16:39:02.437Z,14.70
2022-11-17T16:41:50.773Z,16.48
2022-11-17T16:44:36.707Z,21.33
2022-11-17T16:47:22.960Z,18.42
2022-11-17T16:50:09.666Z,19.75
2022-11-17T16:52:55.759Z,21.83
2022-11-17T16:55:41.802Z,16.55
2022-11-17T16:58:27.730Z,9.25
2022-11-17T17:01:15.488Z,8.75
2022-11-17T17:04:04.458Z,9.35
2022-11-17T17:06:50.460Z,7.72
2022-11-17T17:09:37.862Z,9.77
2022-11-17T17:12:23.774Z,12.60
2022-11-17T17:15:10.281Z,13.88
2022-11-17T17:17:56.293Z,18.10
2022-11-17T17:20:50.562Z,19.98
2022-11-17T17:23:36.615Z,17.85
2022-11-17T17:26:24.174Z,17.63
2022-11-17T17:29:11.107Z,17.02
2022-11-17T17:31:57.096Z,16.88
2022-11-17T17:34:43.221Z,17.92
2022-11-17T17:37:32.251Z,17.92
2022-11-17T17:40:18.129Z,15.45
2022-11-17T17:43:04.249Z,16.58
2022-11-17T17:45:50.466Z,11.85
2022-11-17T17:48:39.408Z,12.23
2022-11-17T17:51:27.146Z,21.92
2022-11-17T17:54:16.945Z,17.88
2022-11-17T17:57:02.763Z,14.43
2022-11-17T17:59:48.604Z,13.00
2022-11-17T18:02:35.070Z,11.75
2022-11-17T18:05:22.630Z,9.20
2022-11-17T18:08:08.607Z,8.50
2022-11-17T18:10:54.386Z,8.82
2022-11-17T18:13:42.515Z,9.05
2022-11-17T18:16:31.330Z,9.10
2022-11-17T18:19:18.315Z,10.00
2022-11-17T18:22:05.818Z,11.30
2022-11-17T18:24:55.948Z,11.18
2022-11-17T18:27:46.327Z,9.48
2022-11-17T18:30:32.855Z,8.93
2022-11-17T18:33:19.035Z,9.13
2022-11-17T18:36:07.715Z,10.32
2022-11-17T18:38:54.246Z,10.57
2022-11-17T18:41:40.240Z,9.57
2022-11-17T18:44:26.531Z,11.13
2022-11-17T18:47:13.709Z,10.55
2022-11-17T18:49:59.845Z,9.93
2022-11-17T18:52:45.562Z,9.65
2022-11-17T18:55:31.388Z,9.10
2022-11-17T18:58:17.042Z,8.70
2022-11-17T19:01:08.430Z,8.80
2022-11-17T19:03:56.016Z,8.48
2022-11-17T19:06:42.183Z,8.75
2022-11-17T19:09:28.330Z,9.52
2022-11-17T19:12:14.859Z,11.93
2022-11-17T19:15:01.142Z,11.57
2022-11-17T19:17:47.097Z,8.82
2022-11-17T19:20:33.178Z,10.30
2022-11-17T19:23:20.514Z,9.57
2022-11-17T19:26:14.623Z,10.32
2022-11-17T19:29:06.414Z,10.00
2022-11-17T19:31:54.870Z,9.93
2022-11-17T19:34:41.906Z,9.43
2022-11-17T19:37:27.847Z,9.70
2022-11-17T19:40:13.839Z,10.90
2022-11-17T19:42:59.994Z,9.70
2022-11-17T19:45:46.061Z,10.30
2022-11-17T19:48:32.473Z,9.90
2022-11-17T19:51:21.402Z,11.18
2022-11-17T19:54:14.313Z,9.40
2022-11-17T19:57:00.373Z,9.52
2022-11-17T19:59:46.339Z,10.45
2022-11-17T20:02:32.529Z,11.85
2022-11-17T20:05:18.093Z,17.42
2022-11-17T20:08:04.335Z,17.33
2022-11-17T20:10:50.345Z,18.75
2022-11-17T20:13:37.614Z,16.30
2022-11-17T20:16:27.731Z,12.35
2022-11-17T20:19:14.216Z,12.35
2022-11-17T20:22:00.519Z,12.07
2022-11-17T20:24:46.531Z,10.27
2022-11-17T20:27:32.868Z,10.55
2022-11-17T20:30:19.271Z,9.52
2022-11-17T20:33:05.571Z,10.88
2022-11-17T20:35:51.702Z,11.07
2022-11-17T20:38:37.761Z,11.55
2022-11-17T20:41:24.316Z,9.98
2022-11-17T20:44:24.041Z,10.88
2022-11-17T20:47:12.882Z,12.70
2022-11-17T20:49:58.768Z,11.63
2022-11-17T20:52:44.953Z,11.30
2022-11-17T20:55:31.044Z,11.07
2022-11-17T20:58:16.709Z,10.82
2022-11-17T21:01:11.879Z,11.60
2022-11-17T21:03:58.054Z,9.70
2022-11-17T21:06:44.261Z,9.60
2022-11-17T21:09:30.288Z,8.93
2022-11-17T21:12:16.168Z,10.40
2022-11-17T21:15:02.299Z,10.35
2022-11-17T21:18:06.627Z,9.93
2022-11-17T21:20:56.127Z,10.15
2022-11-17T21:23:44.360Z,11.48
2022-11-17T21:26:31.227Z,10.93
2022-11-17T21:29:17.611Z,9.85
2022-11-17T21:32:03.952Z,9.95
2022-11-17T21:34:50.501Z,9.88
2022-11-17T21:37:36.446Z,9.43
2022-11-17T21:40:23.461Z,11.32
2022-11-17T21:43:09.319Z,10.80
2022-11-17T21:45:55.151Z,9.73
2022-11-17T21:48:41.258Z,9.95
2022-11-17T21:51:35.122Z,11.23
2022-11-17T21:54:22.321Z,11.35
2022-11-17T21:57:09.260Z,9.65
2022-11-17T21:59:54.950Z,8.75
2022-11-17T22:02:40.658Z,9.38
2022-11-17T22:05:26.454Z,10.75
2022-11-17T22:08:12.537Z,12.23
2022-11-17T22:11:03.306Z,14.88
2022-11-17T22:13:49.212Z,14.70
2022-11-17T22:16:40.335Z,14.45
2022-11-17T22:19:28.028Z,12.95
2022-11-17T22:22:15.289Z,14.07
2022-11-17T22:25:22.726Z,9.50
2022-11-17T22:28:09.377Z,8.07
2022-11-17T22:30:55.617Z,9.93
2022-11-17T22:33:45.951Z,10.75
2022-11-17T22:36:32.374Z,10.23
2022-11-17T22:39:18.594Z,8.35
2022-11-17T22:42:05.093Z,8.95
2022-11-17T22:44:51.297Z,8.40
2022-11-17T22:47:40.105Z,8.60
2022-11-17T22:50:26.220Z,8.70
2022-11-17T22:53:12.243Z,9.23
2022-11-17T22:56:10.477Z,8.07
2022-11-17T22:58:59.607Z,9.43
2022-11-17T23:01:45.702Z,9.18
2022-11-17T23:04:31.845Z,11.18
2022-11-17T23:07:17.749Z,12.45
2022-11-17T23:10:04.062Z,9.73
2022-11-17T23:12:50.857Z,8.80
2022-11-17T23:15:38.981Z,10.77
2022-11-17T23:18:25.715Z,9.15
2022-11-17T23:21:12.036Z,8.70
2022-11-17T23:23:58.115Z,8.48
2022-11-17T23:26:44.189Z,9.38
2022-11-17T23:29:30.206Z,8.55
2022-11-17T23:32:16.414Z,7.50
2022-11-17T23:35:02.098Z,7.00
2022-11-17T23:37:48.331Z,8.05
2022-11-17T23:40:34.383Z,9.20
2022-11-17T23:43:20.619Z,9.98
2022-11-17T23:46:09.749Z,10.68
2022-11-17T23:48:59.151Z,8.23
2022-11-17T23:51:45.067Z,7.55
2022-11-17T23:54:30.983Z,7.85
2022-11-17T23:57:17.204Z,6.72
